AAL1817 KPHX-KSAN
Flight info
| Callsign | AAL1817 |
|---|---|
| Flight time | 0h 51m |
| Altitude | 32000 |
| Route | FYRBD1 MOHAK J2 HOGGZ LUCKI1 |
| Aircraft | A320/M-SDE3FGHIRWY/LB1 |
Departure
| Time | 2026-04-30 21:55 |
|---|---|
| Airport | Phoenix Sky Harbor International Airport (KPHX) |
Arrival
| Time | 2026-04-30 22:47 |
|---|---|
| Airport | San Diego International Airport (KSAN) |
| Time | Latitude | Longitude | Altitude | Speed | Heading |
|---|---|---|---|---|---|
| 2026-04-30 21:26 | 33.43753 | -111.99729 | 1131 ft | 0 kts | 90° |
| 2026-04-30 21:44 | 33.43753 | -111.99733 | 1131 ft | 3 kts | 90° |
| 2026-04-30 21:45 | 33.43749 | -111.99764 | 1135 ft | 4 kts | 60° |
| 2026-04-30 21:45 | 33.43731 | -111.99783 | 1135 ft | 3 kts | 4° |
| 2026-04-30 21:45 | 33.43723 | -111.99784 | 1133 ft | 0 kts | 360° |
| 2026-04-30 21:47 | 33.43728 | -111.99784 | 1134 ft | 4 kts | 359° |
| 2026-04-30 21:47 | 33.43786 | -111.99785 | 1134 ft | 11 kts | 358° |
| 2026-04-30 21:48 | 33.43863 | -111.99786 | 1134 ft | 10 kts | 1° |
| 2026-04-30 21:48 | 33.43905 | -111.99843 | 1133 ft | 13 kts | 274° |
| 2026-04-30 21:48 | 33.43906 | -111.99947 | 1131 ft | 12 kts | 271° |
| 2026-04-30 21:48 | 33.43906 | -112.00044 | 1131 ft | 11 kts | 267° |
| 2026-04-30 21:49 | 33.43903 | -112.00145 | 1131 ft | 13 kts | 269° |
| 2026-04-30 21:49 | 33.43903 | -112.00262 | 1131 ft | 14 kts | 270° |
| 2026-04-30 21:49 | 33.43889 | -112.00372 | 1133 ft | 12 kts | 221° |
| 2026-04-30 21:49 | 33.43802 | -112.00381 | 1132 ft | 15 kts | 179° |
| 2026-04-30 21:50 | 33.43678 | -112.00380 | 1133 ft | 19 kts | 179° |
| 2026-04-30 21:50 | 33.43541 | -112.00381 | 1133 ft | 20 kts | 181° |
| 2026-04-30 21:50 | 33.43410 | -112.00381 | 1132 ft | 17 kts | 179° |
| 2026-04-30 21:50 | 33.43296 | -112.00378 | 1134 ft | 18 kts | 180° |
| 2026-04-30 21:51 | 33.43214 | -112.00332 | 1132 ft | 14 kts | 99° |
| 2026-04-30 21:51 | 33.43214 | -112.00194 | 1136 ft | 18 kts | 89° |
| 2026-04-30 21:51 | 33.43213 | -112.00041 | 1134 ft | 19 kts | 91° |
| 2026-04-30 21:51 | 33.43215 | -111.99882 | 1134 ft | 19 kts | 90° |
| 2026-04-30 21:52 | 33.43213 | -111.99721 | 1136 ft | 20 kts | 91° |
| 2026-04-30 21:52 | 33.43213 | -111.99552 | 1134 ft | 21 kts | 91° |
| 2026-04-30 21:52 | 33.43212 | -111.99386 | 1135 ft | 14 kts | 92° |
| 2026-04-30 21:52 | 33.43201 | -111.99361 | 1133 ft | 0 kts | 125° |
| 2026-04-30 21:54 | 33.43148 | -111.99345 | 1137 ft | 9 kts | 179° |
| 2026-04-30 21:54 | 33.43106 | -111.99376 | 1137 ft | 9 kts | 241° |
| 2026-04-30 21:54 | 33.43102 | -111.99454 | 1136 ft | 13 kts | 270° |
| 2026-04-30 21:54 | 33.43104 | -111.99799 | 1135 ft | 80 kts | 270° |
| 2026-04-30 21:55 | 33.43107 | -112.00740 | 1133 ft | 143 kts | 270° |
| 2026-04-30 21:55 | 33.43112 | -112.02038 | 1554 ft | 158 kts | 268° |
| 2026-04-30 21:55 | 33.43065 | -112.03374 | 2225 ft | 164 kts | 265° |
| 2026-04-30 21:55 | 33.42994 | -112.04739 | 2903 ft | 165 kts | 265° |
| 2026-04-30 21:56 | 33.42914 | -112.06133 | 3461 ft | 175 kts | 266° |
| 2026-04-30 21:56 | 33.42819 | -112.07681 | 3795 ft | 197 kts | 260° |
| 2026-04-30 21:56 | 33.42312 | -112.09280 | 4063 ft | 222 kts | 245° |
| 2026-04-30 21:56 | 33.41641 | -112.11098 | 4338 ft | 252 kts | 248° |
| 2026-04-30 21:57 | 33.40988 | -112.13117 | 5000 ft | 265 kts | 250° |
| 2026-04-30 21:57 | 33.40324 | -112.15200 | 5903 ft | 270 kts | 244° |
| 2026-04-30 21:57 | 33.39158 | -112.16973 | 6755 ft | 277 kts | 218° |
| 2026-04-30 21:57 | 33.37391 | -112.17923 | 7613 ft | 285 kts | 190° |
| 2026-04-30 21:58 | 33.35408 | -112.17777 | 8506 ft | 291 kts | 165° |
| 2026-04-30 21:58 | 33.33458 | -112.17094 | 9450 ft | 294 kts | 164° |
| 2026-04-30 21:58 | 33.31483 | -112.16383 | 10313 ft | 297 kts | 164° |
| 2026-04-30 21:58 | 33.29451 | -112.15652 | 10779 ft | 317 kts | 165° |
| 2026-04-30 21:59 | 33.27227 | -112.15347 | 11227 ft | 330 kts | 188° |
| 2026-04-30 21:59 | 33.25078 | -112.16300 | 11966 ft | 333 kts | 215° |
| 2026-04-30 21:59 | 33.23530 | -112.18336 | 12774 ft | 337 kts | 242° |
| 2026-04-30 22:00 | 33.22573 | -112.23845 | 14360 ft | 344 kts | 257° |
| 2026-04-30 22:00 | 33.20524 | -112.28994 | 15760 ft | 348 kts | 234° |
| 2026-04-30 22:00 | 33.19083 | -112.31331 | 16461 ft | 352 kts | 232° |
| 2026-04-30 22:01 | 33.17587 | -112.33654 | 17157 ft | 355 kts | 231° |
| 2026-04-30 22:01 | 33.16057 | -112.35988 | 17758 ft | 358 kts | 231° |
| 2026-04-30 22:01 | 33.14516 | -112.38330 | 17943 ft | 359 kts | 231° |
| 2026-04-30 22:01 | 33.12979 | -112.40673 | 17964 ft | 359 kts | 231° |
| 2026-04-30 22:02 | 33.11449 | -112.43016 | 17970 ft | 359 kts | 232° |
| 2026-04-30 22:02 | 33.09921 | -112.45366 | 17975 ft | 357 kts | 232° |
| 2026-04-30 22:02 | 33.08390 | -112.47729 | 18247 ft | 362 kts | 232° |
| 2026-04-30 22:02 | 33.06848 | -112.50109 | 18890 ft | 365 kts | 232° |
| 2026-04-30 22:03 | 33.05290 | -112.52516 | 19501 ft | 368 kts | 232° |
| 2026-04-30 22:03 | 33.03721 | -112.54941 | 20111 ft | 371 kts | 232° |
| 2026-04-30 22:03 | 33.02142 | -112.57384 | 20702 ft | 374 kts | 232° |
| 2026-04-30 22:03 | 33.00544 | -112.59854 | 21304 ft | 377 kts | 232° |
| 2026-04-30 22:04 | 32.98933 | -112.62339 | 21887 ft | 381 kts | 232° |
| 2026-04-30 22:04 | 32.97322 | -112.64852 | 22473 ft | 384 kts | 235° |
| 2026-04-30 22:04 | 32.95204 | -112.70709 | 23574 ft | 392 kts | 258° |
| 2026-04-30 22:05 | 32.94766 | -112.73921 | 24058 ft | 394 kts | 260° |
| 2026-04-30 22:05 | 32.94337 | -112.77151 | 24545 ft | 396 kts | 260° |
| 2026-04-30 22:05 | 32.93902 | -112.80395 | 25034 ft | 397 kts | 260° |
| 2026-04-30 22:05 | 32.93469 | -112.83601 | 25504 ft | 399 kts | 260° |
| 2026-04-30 22:06 | 32.93022 | -112.86915 | 25949 ft | 401 kts | 260° |
| 2026-04-30 22:06 | 32.92136 | -112.93458 | 26812 ft | 405 kts | 260° |
| 2026-04-30 22:06 | 32.91686 | -112.96776 | 27232 ft | 408 kts | 260° |
| 2026-04-30 22:07 | 32.91231 | -113.00119 | 27626 ft | 410 kts | 260° |
| 2026-04-30 22:07 | 32.90773 | -113.03477 | 28025 ft | 412 kts | 260° |
| 2026-04-30 22:07 | 32.90311 | -113.06847 | 28422 ft | 415 kts | 260° |
| 2026-04-30 22:07 | 32.89842 | -113.10246 | 28798 ft | 417 kts | 259° |
| 2026-04-30 22:08 | 32.89373 | -113.13641 | 29145 ft | 420 kts | 259° |
| 2026-04-30 22:08 | 32.88893 | -113.17106 | 29505 ft | 422 kts | 259° |
| 2026-04-30 22:08 | 32.88413 | -113.20569 | 29859 ft | 425 kts | 259° |
| 2026-04-30 22:08 | 32.87944 | -113.23968 | 30153 ft | 427 kts | 259° |
| 2026-04-30 22:09 | 32.87454 | -113.27530 | 30483 ft | 428 kts | 259° |
| 2026-04-30 22:09 | 32.86973 | -113.31020 | 30816 ft | 428 kts | 259° |
| 2026-04-30 22:09 | 32.86491 | -113.34500 | 31149 ft | 428 kts | 259° |
| 2026-04-30 22:09 | 32.86002 | -113.38001 | 31504 ft | 427 kts | 258° |
| 2026-04-30 22:10 | 32.85516 | -113.41481 | 31727 ft | 425 kts | 258° |
| 2026-04-30 22:10 | 32.85041 | -113.44896 | 31760 ft | 411 kts | 258° |
| 2026-04-30 22:10 | 32.84736 | -113.47085 | 31767 ft | 399 kts | 258° |
| 2026-04-30 22:10 | 32.84136 | -113.51371 | 31761 ft | 389 kts | 258° |
| 2026-04-30 22:11 | 32.82942 | -113.59776 | 31764 ft | 386 kts | 258° |
| 2026-04-30 22:12 | 32.82036 | -113.66078 | 31761 ft | 386 kts | 258° |
| 2026-04-30 22:12 | 32.81138 | -113.72369 | 31762 ft | 386 kts | 259° |
| 2026-04-30 22:13 | 32.80246 | -113.78661 | 31759 ft | 386 kts | 259° |
| 2026-04-30 22:13 | 32.79352 | -113.84951 | 31747 ft | 386 kts | 259° |
| 2026-04-30 22:14 | 32.78449 | -113.91240 | 31747 ft | 386 kts | 259° |
| 2026-04-30 22:14 | 32.77607 | -113.97534 | 31739 ft | 386 kts | 265° |
| 2026-04-30 22:15 | 32.77520 | -114.03926 | 31744 ft | 387 kts | 268° |
| 2026-04-30 22:15 | 32.77535 | -114.10323 | 31746 ft | 388 kts | 270° |
| 2026-04-30 22:16 | 32.77803 | -114.16727 | 31757 ft | 388 kts | 272° |
| 2026-04-30 22:17 | 32.78407 | -114.29534 | 31770 ft | 388 kts | 271° |
| 2026-04-30 22:17 | 32.78973 | -114.39138 | 31769 ft | 390 kts | 281° |
| 2026-04-30 22:18 | 32.81435 | -114.48375 | 31771 ft | 391 kts | 287° |
| 2026-04-30 22:19 | 32.83974 | -114.57595 | 31763 ft | 391 kts | 287° |
| 2026-04-30 22:20 | 32.86500 | -114.66818 | 31771 ft | 391 kts | 287° |
| 2026-04-30 22:20 | 32.87819 | -114.73023 | 31768 ft | 390 kts | 275° |
| 2026-04-30 22:20 | 32.87862 | -114.76246 | 31767 ft | 390 kts | 269° |
| 2026-04-30 22:21 | 32.87712 | -114.82693 | 31760 ft | 391 kts | 269° |
| 2026-04-30 22:21 | 32.87570 | -114.89125 | 31764 ft | 391 kts | 269° |
| 2026-04-30 22:22 | 32.87426 | -114.95618 | 31762 ft | 391 kts | 269° |
| 2026-04-30 22:22 | 32.87274 | -115.02095 | 31744 ft | 392 kts | 269° |
| 2026-04-30 22:23 | 32.87195 | -115.05321 | 31494 ft | 389 kts | 269° |
| 2026-04-30 22:23 | 32.87118 | -115.08532 | 31238 ft | 387 kts | 269° |
| 2026-04-30 22:23 | 32.87042 | -115.11719 | 30999 ft | 385 kts | 270° |
| 2026-04-30 22:23 | 32.86966 | -115.14886 | 30672 ft | 380 kts | 270° |
| 2026-04-30 22:24 | 32.86891 | -115.18017 | 30225 ft | 378 kts | 270° |
| 2026-04-30 22:24 | 32.86814 | -115.21127 | 29774 ft | 375 kts | 270° |
| 2026-04-30 22:24 | 32.86736 | -115.24220 | 29329 ft | 372 kts | 270° |
| 2026-04-30 22:24 | 32.86657 | -115.27274 | 28907 ft | 368 kts | 270° |
| 2026-04-30 22:25 | 32.86578 | -115.30298 | 28477 ft | 364 kts | 270° |
| 2026-04-30 22:25 | 32.86501 | -115.33295 | 28051 ft | 361 kts | 269° |
| 2026-04-30 22:25 | 32.86191 | -115.36249 | 27639 ft | 359 kts | 262° |
| 2026-04-30 22:25 | 32.85780 | -115.39170 | 27211 ft | 357 kts | 262° |
| 2026-04-30 22:26 | 32.84966 | -115.44958 | 26348 ft | 353 kts | 262° |
| 2026-04-30 22:26 | 32.84562 | -115.47835 | 25914 ft | 351 kts | 262° |
| 2026-04-30 22:26 | 32.84150 | -115.50694 | 25487 ft | 352 kts | 261° |
| 2026-04-30 22:27 | 32.83698 | -115.53566 | 25063 ft | 353 kts | 260° |
| 2026-04-30 22:27 | 32.83227 | -115.56422 | 24641 ft | 352 kts | 259° |
| 2026-04-30 22:27 | 32.82275 | -115.62095 | 23804 ft | 349 kts | 259° |
| 2026-04-30 22:28 | 32.81342 | -115.67712 | 23053 ft | 342 kts | 259° |
| 2026-04-30 22:28 | 32.80886 | -115.70469 | 22621 ft | 339 kts | 259° |
| 2026-04-30 22:29 | 32.79538 | -115.78632 | 21343 ft | 332 kts | 259° |
| 2026-04-30 22:29 | 32.79095 | -115.81315 | 20931 ft | 330 kts | 259° |
| 2026-04-30 22:30 | 32.77987 | -115.92026 | 19291 ft | 324 kts | 265° |
| 2026-04-30 22:31 | 32.77388 | -116.00002 | 18114 ft | 322 kts | 265° |
| 2026-04-30 22:32 | 32.76796 | -116.07888 | 16951 ft | 316 kts | 265° |
| 2026-04-30 22:32 | 32.76402 | -116.13049 | 16233 ft | 311 kts | 265° |
| 2026-04-30 22:33 | 32.75802 | -116.20857 | 15146 ft | 328 kts | 265° |
| 2026-04-30 22:33 | 32.75386 | -116.26237 | 14403 ft | 326 kts | 265° |
| 2026-04-30 22:34 | 32.74798 | -116.33876 | 13304 ft | 291 kts | 265° |
| 2026-04-30 22:35 | 32.74428 | -116.38651 | 12622 ft | 289 kts | 265° |
| 2026-04-30 22:36 | 32.73678 | -116.48109 | 11242 ft | 285 kts | 265° |
| 2026-04-30 22:36 | 32.73493 | -116.50452 | 10886 ft | 285 kts | 265° |
| 2026-04-30 22:37 | 32.72819 | -116.57588 | 9776 ft | 292 kts | 264° |
| 2026-04-30 22:37 | 32.72582 | -116.59978 | 9380 ft | 291 kts | 264° |
| 2026-04-30 22:37 | 32.72116 | -116.64722 | 8645 ft | 288 kts | 263° |
| 2026-04-30 22:38 | 32.71695 | -116.69425 | 7916 ft | 286 kts | 264° |
| 2026-04-30 22:38 | 32.71343 | -116.74073 | 7198 ft | 280 kts | 265° |
| 2026-04-30 22:39 | 32.71172 | -116.76363 | 6855 ft | 277 kts | 264° |
| 2026-04-30 22:39 | 32.70385 | -116.82981 | 5791 ft | 255 kts | 249° |
| 2026-04-30 22:40 | 32.68656 | -116.88488 | 4978 ft | 229 kts | 250° |
| 2026-04-30 22:41 | 32.67382 | -116.93853 | 4175 ft | 223 kts | 272° |
| 2026-04-30 22:41 | 32.68099 | -116.97365 | 3663 ft | 217 kts | 285° |
| 2026-04-30 22:42 | 32.69627 | -117.03605 | 2807 ft | 171 kts | 285° |
| 2026-04-30 22:43 | 32.70240 | -117.06116 | 2357 ft | 148 kts | 285° |
| 2026-04-30 22:43 | 32.70783 | -117.08340 | 1980 ft | 134 kts | 284° |
| 2026-04-30 22:44 | 32.71287 | -117.10432 | 1563 ft | 131 kts | 284° |
| 2026-04-30 22:45 | 32.72291 | -117.14576 | 735 ft | 129 kts | 284° |
| 2026-04-30 22:45 | 32.72798 | -117.16623 | 284 ft | 129 kts | 283° |
| 2026-04-30 22:46 | 32.73270 | -117.18617 | 29 ft | 116 kts | 283° |
| 2026-04-30 22:47 | 32.73514 | -117.19833 | 29 ft | 0 kts | 242° |
| 2026-04-30 22:47 | 32.73514 | -117.19834 | 29 ft | 0 kts | 242° |
| 2026-04-30 22:48 | 32.73512 | -117.19838 | 29 ft | 1 kts | 242° |
| 2026-04-30 22:49 | 32.73495 | -117.19970 | 27 ft | 8 kts | 283° |
| 2026-04-30 22:49 | 32.73547 | -117.20207 | 26 ft | 9 kts | 259° |
| 2026-04-30 22:50 | 32.73331 | -117.20238 | 24 ft | 4 kts | 91° |
| 2026-04-30 22:51 | 32.73335 | -117.20186 | 24 ft | 3 kts | 85° |
| 2026-04-30 22:51 | 32.73336 | -117.20177 | 24 ft | 0 kts | 84° |